Time;durP1;ratioP1;P1;durP2;ratioP2;P2;SDS_P1;SDS_P2;PMS_P1;PMS_P2;Temp;Humidity;BMP_temperature;BMP_pressure;BME280_temperature;BME280_humidity;BME280_pressure;Samples;Min_cycle;Max_cycle;Signal;HPM_P1;HPM_P2
2024/03/18 00:00:27;;;;;;;9.23;5.93;;;;;;;11.41;96.13;98251.75;4220016;28;20635;-88
2024/03/18 00:02:29;;;;;;;8.13;6.37;;;;;;;11.41;97.31;98257.84;4186660;28;21231;-88
2024/03/18 00:04:31;;;;;;;8.30;6.67;;;;;;;11.41;96.42;98250.00;4187484;28;20624;-88
2024/03/18 00:06:32;;;;;;;10.07;5.87;;;;;;;11.40;97.68;98255.34;4175845;28;20666;-87
2024/03/18 00:08:35;;;;;;;7.87;6.37;;;;;;;11.41;97.41;98257.00;4169912;28;20621;-88
2024/03/18 00:10:38;;;;;;;11.70;6.93;;;;;;;11.41;97.18;98243.94;4198116;28;20620;-87
2024/03/18 00:12:40;;;;;;;7.63;6.30;;;;;;;11.41;96.40;98249.16;4170261;28;20601;-87
2024/03/18 00:14:43;;;;;;;10.87;6.60;;;;;;;11.39;97.03;98245.81;4186468;28;20719;-87
2024/03/18 00:16:45;;;;;;;7.17;6.47;;;;;;;11.35;96.71;98245.22;4183623;28;20608;-87
2024/03/18 00:18:48;;;;;;;7.83;6.23;;;;;;;11.34;96.78;98245.31;4218643;28;21159;-87
2024/03/18 00:20:51;;;;;;;8.87;5.97;;;;;;;11.33;96.96;98244.47;4185282;28;20609;-88
2024/03/18 00:22:54;;;;;;;8.50;7.63;;;;;;;11.35;97.45;98244.34;4199692;28;21588;-87
2024/03/18 00:24:55;;;;;;;8.53;6.70;;;;;;;11.35;96.52;98244.34;4185720;28;21253;-88
2024/03/18 00:26:59;;;;;;;7.83;7.00;;;;;;;11.35;97.75;98250.44;4185746;28;20619;-88
2024/03/18 00:29:02;;;;;;;8.63;6.87;;;;;;;11.37;96.85;98239.88;4198911;28;20611;-88
2024/03/18 00:31:04;;;;;;;7.20;6.40;;;;;;;11.37;96.23;98240.72;4200980;28;20627;-88
2024/03/18 00:33:06;;;;;;;7.93;6.43;;;;;;;11.38;98.14;98237.16;4186937;28;20613;-89
2024/03/18 00:35:10;;;;;;;7.60;6.80;;;;;;;11.38;96.67;98239.78;4186770;28;20623;-88
2024/03/18 00:37:11;;;;;;;7.60;6.40;;;;;;;11.39;98.07;98238.81;4186297;28;20643;-88
2024/03/18 00:39:14;;;;;;;7.33;6.57;;;;;;;11.39;97.53;98235.38;4185416;28;21039;-88
2024/03/18 00:43:42;;;;;;;7.90;6.60;;;;;;;11.41;97.26;98220.44;4148541;28;20745;-88
2024/03/18 00:45:45;;;;;;;8.60;6.17;;;;;;;11.40;96.59;98224.00;4202744;28;20981;-88
2024/03/18 00:47:47;;;;;;;9.77;7.07;;;;;;;11.37;96.50;98224.22;4185941;28;20654;-88
2024/03/18 00:49:48;;;;;;;9.53;6.50;;;;;;;11.38;96.63;98225.88;4183120;28;20644;-88
2024/03/18 00:51:51;;;;;;;7.27;6.57;;;;;;;11.37;96.23;98221.59;4185531;28;20951;-87
2024/03/18 00:53:52;;;;;;;8.83;6.30;;;;;;;11.37;97.66;98219.00;4183417;28;20624;-88
2024/03/18 00:55:55;;;;;;;7.33;6.40;;;;;;;11.38;97.47;98216.28;4199925;28;20705;-88
2024/03/18 00:57:58;;;;;;;7.47;6.30;;;;;;;11.39;97.14;98220.53;4201071;28;20689;-88
2024/03/18 01:00:06;;;;;;;8.57;6.90;;;;;;;11.42;98.33;98228.16;4184334;28;20634;-88
2024/03/18 01:02:08;;;;;;;9.93;7.50;;;;;;;11.42;97.13;98222.13;4185661;28;20623;-88
2024/03/18 01:04:10;;;;;;;11.07;8.10;;;;;;;11.41;98.25;98223.03;4183377;28;20612;-88
2024/03/18 01:06:14;;;;;;;10.50;7.73;;;;;;;11.42;96.94;98220.31;4198918;28;20651;-88
2024/03/18 01:08:16;;;;;;;11.30;7.27;;;;;;;11.40;97.41;98219.59;4182948;28;20628;-88
2024/03/18 01:10:18;;;;;;;9.10;7.60;;;;;;;11.37;98.01;98214.59;4185001;28;20627;-87
2024/03/18 01:12:20;;;;;;;10.07;6.93;;;;;;;11.37;97.41;98213.78;4200747;28;21208;-88
2024/03/18 01:14:21;;;;;;;8.10;6.40;;;;;;;11.35;96.80;98216.50;4168399;28;21221;-89
2024/03/18 01:16:26;;;;;;;10.30;6.93;;;;;;;11.35;98.58;98213.03;4169981;28;21039;-88
2024/03/18 01:18:30;;;;;;;7.87;6.90;;;;;;;11.34;96.55;98206.16;4187286;28;20640;-88
2024/03/18 01:20:32;;;;;;;8.03;6.97;;;;;;;11.33;97.37;98207.91;4200145;28;20634;-88
2024/03/18 01:22:35;;;;;;;8.47;6.97;;;;;;;11.32;98.29;98202.78;4197652;28;20607;-88
2024/03/18 01:24:36;;;;;;;9.83;6.80;;;;;;;11.33;97.42;98202.69;4183341;28;20660;-88
2024/03/18 01:26:41;;;;;;;13.27;6.63;;;;;;;11.34;98.30;98201.75;4182925;28;20690;-87
2024/03/18 01:28:42;;;;;;;9.67;6.27;;;;;;;11.34;98.57;98193.09;4170518;28;20617;-88
2024/03/18 01:30:45;;;;;;;9.80;7.20;;;;;;;11.31;98.31;98194.13;4201436;28;21258;-88
2024/03/18 01:32:49;;;;;;;9.30;7.30;;;;;;;11.31;98.50;98183.69;4182360;28;20612;-88
2024/03/18 01:34:51;;;;;;;8.77;7.37;;;;;;;11.30;98.86;98181.19;4199513;28;20627;-88
2024/03/18 01:36:53;;;;;;;7.63;6.77;;;;;;;11.30;98.71;98170.75;4187192;28;20616;-88
2024/03/18 01:38:55;;;;;;;8.63;6.90;;;;;;;11.32;99.03;98174.06;4201524;28;20684;-88
2024/03/18 01:40:57;;;;;;;9.00;6.93;;;;;;;11.32;98.94;98174.06;4171400;28;20754;-87
2024/03/18 01:42:59;;;;;;;9.30;6.70;;;;;;;11.31;98.60;98172.41;4188829;28;20619;-88
2024/03/18 01:45:02;;;;;;;9.60;6.97;;;;;;;11.33;99.27;98173.13;4184467;28;21605;-88
2024/03/18 01:47:05;;;;;;;9.47;7.10;;;;;;;11.34;99.40;98173.03;4188261;28;20619;-88
2024/03/18 01:49:10;;;;;;;8.40;6.60;;;;;;;11.34;98.75;98169.59;4185197;28;20643;-89
2024/03/18 01:51:13;;;;;;;10.27;7.53;;;;;;;11.33;97.80;98165.31;4174204;28;20755;-88
2024/03/18 01:53:15;;;;;;;9.10;7.20;;;;;;;11.32;99.09;98169.69;4171914;28;21370;-88
2024/03/18 01:55:17;;;;;;;7.10;6.30;;;;;;;11.31;98.83;98157.56;4192280;28;21224;-88
2024/03/18 01:57:20;;;;;;;7.97;7.00;;;;;;;11.32;98.12;98146.22;4191943;28;20630;-88
2024/03/18 01:59:22;;;;;;;7.63;6.70;;;;;;;11.32;98.96;98148.81;4191702;28;20628;-88
2024/03/18 02:01:25;;;;;;;10.70;7.17;;;;;;;11.32;99.77;98148.81;4176558;28;20666;-85
2024/03/18 02:03:26;;;;;;;11.07;6.53;;;;;;;11.32;98.36;98146.22;4176970;28;21202;-85
2024/03/18 02:05:30;;;;;;;10.20;6.53;;;;;;;11.34;97.75;98136.47;4203042;28;21064;-84
2024/03/18 02:07:33;;;;;;;6.93;6.23;;;;;;;11.32;99.06;98143.59;4190304;28;21337;-85
2024/03/18 02:09:35;;;;;;;7.43;6.37;;;;;;;11.33;98.90;98149.63;4204759;28;20638;-85
2024/03/18 02:11:38;;;;;;;8.70;6.50;;;;;;;11.33;98.12;98149.63;4205777;28;21211;-85
2024/03/18 02:13:44;;;;;;;7.60;6.07;;;;;;;11.32;99.04;98143.59;4189858;28;20661;-85
2024/03/18 02:15:45;;;;;;;8.20;6.70;;;;;;;11.35;98.20;98152.97;4207258;28;20615;-85
2024/03/18 02:17:47;;;;;;;9.03;6.70;;;;;;;11.35;99.60;98147.75;4175283;28;20663;-85
2024/03/18 02:19:50;;;;;;;10.43;7.07;;;;;;;11.35;98.51;98147.75;4184659;28;21048;-85
2024/03/18 02:21:53;;;;;;;13.03;6.50;;;;;;;11.35;98.47;98146.00;4205885;28;20642;-85
2024/03/18 02:23:56;;;;;;;7.87;6.30;;;;;;;11.35;99.52;98145.13;4174567;28;20617;-85
2024/03/18 02:25:59;;;;;;;6.87;6.10;;;;;;;11.35;98.86;98140.75;4185909;28;20629;-85
2024/03/18 02:28:00;;;;;;;8.20;6.03;;;;;;;11.35;98.24;98132.06;4188248;28;20612;-85
2024/03/18 02:30:04;;;;;;;6.93;6.13;;;;;;;11.34;98.85;98123.41;4186579;28;21022;-85
2024/03/18 02:32:07;;;;;;;8.77;6.37;;;;;;;11.34;98.53;98127.81;4187875;28;20619;-85
2024/03/18 02:34:09;;;;;;;7.07;6.37;;;;;;;11.33;97.85;98120.91;4204733;28;21010;-86
2024/03/18 02:36:11;;;;;;;8.20;6.00;;;;;;;11.32;97.78;98120.09;4200167;28;20615;-84
2024/03/18 02:38:15;;;;;;;8.33;6.20;;;;;;;11.32;97.78;98117.47;4191144;28;21059;-85
2024/03/18 02:40:18;;;;;;;7.97;6.10;;;;;;;11.32;97.72;98111.41;4192062;28;20638;-84
2024/03/18 02:42:20;;;;;;;9.97;6.80;;;;;;;11.31;97.64;98105.34;4205529;28;21064;-85
2024/03/18 02:44:22;;;;;;;7.17;6.17;;;;;;;11.31;97.75;98105.34;4189983;28;20619;-85
2024/03/18 02:46:25;;;;;;;6.43;5.53;;;;;;;11.31;98.47;98104.53;4168974;28;21207;-86
2024/03/18 02:48:30;;;;;;;8.40;6.03;;;;;;;11.30;98.65;98100.25;4188051;28;20715;-85
2024/03/18 02:50:33;;;;;;;7.30;5.67;;;;;;;11.30;99.17;98097.63;4187471;28;20604;-85
2024/03/18 02:52:38;;;;;;;7.10;5.80;;;;;;;11.29;98.27;98096.00;4172752;28;21305;-85
2024/03/18 02:54:39;;;;;;;7.30;6.37;;;;;;;11.27;97.68;98098.72;4190042;28;21218;-84
2024/03/18 02:56:43;;;;;;;6.93;6.23;;;;;;;11.27;98.78;98091.81;4204641;28;20656;-84
2024/03/18 02:58:45;;;;;;;7.63;6.60;;;;;;;11.27;99.09;98095.25;4191103;28;20647;-85
2024/03/18 03:00:48;;;;;;;8.80;6.30;;;;;;;11.27;98.72;98094.41;4166067;28;20630;-85
2024/03/18 03:02:50;;;;;;;7.73;6.30;;;;;;;11.26;99.32;98088.38;4181543;28;21106;-84
2024/03/18 03:04:52;;;;;;;8.20;6.10;;;;;;;11.25;99.41;98097.13;4200569;28;21217;-85
2024/03/18 03:06:55;;;;;;;8.03;6.30;;;;;;;11.24;99.02;98087.63;4188785;28;20651;-85
2024/03/18 03:08:58;;;;;;;7.90;6.30;;;;;;;11.23;99.63;98090.34;4203798;28;20615;-85
2024/03/18 03:11:04;;;;;;;9.37;6.17;;;;;;;11.23;99.52;98085.97;4182356;28;21226;-87
2024/03/18 03:13:08;;;;;;;7.50;6.47;;;;;;;11.21;100.00;98085.22;4183878;28;20635;-88
2024/03/18 03:15:10;;;;;;;7.30;6.53;;;;;;;11.23;99.93;98080.75;4165290;28;20620;-88
2024/03/18 03:17:11;;;;;;;8.67;7.10;;;;;;;11.23;98.32;98072.94;4188581;28;20631;-88
2024/03/18 03:19:14;;;;;;;7.53;6.43;;;;;;;11.23;98.18;98074.69;4189979;28;20636;-89
2024/03/18 03:21:15;;;;;;;9.60;6.77;;;;;;;11.25;97.80;98083.25;4170894;28;20626;-88
2024/03/18 03:23:18;;;;;;;7.70;6.83;;;;;;;11.25;99.12;98076.25;4171829;28;20669;-88
2024/03/18 03:25:21;;;;;;;7.10;6.40;;;;;;;11.27;99.65;98081.38;4169250;28;20633;-88
2024/03/18 03:27:23;;;;;;;9.20;7.10;;;;;;;11.27;98.45;98081.38;4202295;28;20683;-88
2024/03/18 03:29:26;;;;;;;8.03;6.13;;;;;;;11.26;99.59;98080.53;4184712;28;20616;-88
2024/03/18 03:31:28;;;;;;;7.33;6.43;;;;;;;11.25;99.40;98083.25;4200673;28;20636;-88
2024/03/18 03:33:31;;;;;;;9.10;7.13;;;;;;;11.24;98.42;98077.19;4187985;28;20625;-88
2024/03/18 03:35:34;;;;;;;7.93;6.80;;;;;;;11.24;99.60;98063.31;4215624;28;20652;-88
2024/03/18 03:37:36;;;;;;;7.83;6.83;;;;;;;11.21;97.52;98066.97;4219312;28;20619;-89
2024/03/18 03:39:39;;;;;;;7.63;6.83;;;;;;;11.21;98.38;98060.91;4190442;28;21216;-88
2024/03/18 03:41:42;;;;;;;8.60;5.87;;;;;;;11.20;98.15;98062.69;4188954;28;20604;-88
2024/03/18 03:43:44;;;;;;;6.40;5.47;;;;;;;11.19;98.28;98068.03;4204160;28;21422;-88
2024/03/18 03:45:54;;;;;;;8.17;6.77;;;;;;;11.19;98.61;98057.59;4184340;28;20620;-89
2024/03/18 03:47:56;;;;;;;11.40;6.13;;;;;;;11.19;98.27;98060.19;4187203;28;20705;-88
2024/03/18 03:49:59;;;;;;;7.50;6.53;;;;;;;11.19;98.50;98068.84;4172617;28;20679;-88
2024/03/18 03:52:01;;;;;;;10.60;7.03;;;;;;;11.17;98.56;98062.06;4188812;28;20620;-88
2024/03/18 03:54:03;;;;;;;7.47;6.50;;;;;;;11.17;98.33;98056.84;4181865;28;21318;-88
2024/03/18 03:56:05;;;;;;;10.97;6.70;;;;;;;11.17;99.01;98069.91;4202305;28;20674;-89
2024/03/18 03:58:06;;;;;;;7.77;6.60;;;;;;;11.17;99.45;98070.75;4184539;28;20648;-88
2024/03/18 04:00:11;;;;;;;8.80;6.73;;;;;;;11.16;99.12;98061.25;4187182;28;20642;-88
2024/03/18 04:02:18;;;;;;;7.33;6.17;;;;;;;11.16;98.61;98056.03;4178958;28;20627;-88
2024/03/18 04:04:23;;;;;;;7.97;6.80;;;;;;;11.14;98.63;98055.31;4188212;28;21416;-88
2024/03/18 04:06:25;;;;;;;10.00;6.57;;;;;;;11.11;98.15;98055.53;4170354;28;20649;-88
2024/03/18 04:08:27;;;;;;;8.20;6.90;;;;;;;11.10;98.37;98053.84;4181652;28;20658;-88
2024/03/18 04:10:29;;;;;;;8.30;6.03;;;;;;;11.10;98.33;98050.41;4184819;28;20608;-89
2024/03/18 04:12:31;;;;;;;8.17;7.17;;;;;;;11.07;99.34;98046.22;4186578;28;20620;-88
2024/03/18 04:14:33;;;;;;;8.00;6.50;;;;;;;11.07;98.14;98041.00;4178082;28;20613;-88
2024/03/18 04:16:35;;;;;;;8.70;6.50;;;;;;;11.02;97.40;98035.28;4172214;28;20609;-88
2024/03/18 04:18:38;;;;;;;6.80;5.90;;;;;;;10.97;97.52;98037.38;4197109;28;20696;-89
2024/03/18 04:20:40;;;;;;;7.20;6.50;;;;;;;10.95;97.21;98026.22;4204048;28;20619;-88
2024/03/18 04:22:43;;;;;;;10.33;7.17;;;;;;;10.94;98.31;98021.13;4174315;28;20617;-88
2024/03/18 04:24:45;;;;;;;7.50;6.80;;;;;;;10.93;97.98;98017.69;4170869;28;21272;-89
2024/03/18 04:26:49;;;;;;;8.20;7.10;;;;;;;10.90;98.16;98010.06;4185224;28;20624;-89
2024/03/18 04:28:52;;;;;;;15.43;7.90;;;;;;;10.89;98.67;98010.19;4199003;28;20620;-89
2024/03/18 04:30:55;;;;;;;9.03;7.37;;;;;;;10.91;99.70;98003.88;4221515;28;20602;-88
2024/03/18 04:32:57;;;;;;;9.20;6.67;;;;;;;10.94;100.00;98005.47;4201712;28;20627;-88
2024/03/18 04:35:06;;;;;;;7.97;6.60;;;;;;;10.99;100.00;98005.94;4188687;28;21465;-89
2024/03/18 04:37:09;;;;;;;9.13;6.63;;;;;;;10.98;98.89;98006.91;4188640;28;20612;-88
2024/03/18 04:39:11;;;;;;;8.80;7.40;;;;;;;10.97;100.00;98005.25;4164621;28;20660;-88
2024/03/18 04:41:13;;;;;;;9.17;7.80;;;;;;;10.98;98.58;98006.91;4183569;28;21080;-88
2024/03/18 04:43:17;;;;;;;8.80;7.60;;;;;;;10.98;99.90;98006.91;4186956;28;20682;-89
2024/03/18 04:45:22;;;;;;;9.47;6.93;;;;;;;10.97;99.28;98005.25;4197971;28;20626;-88
2024/03/18 04:47:26;;;;;;;10.13;7.10;;;;;;;10.98;99.43;98010.34;4203861;28;20606;-87
2024/03/18 04:49:29;;;;;;;8.00;6.87;;;;;;;11.01;100.00;98010.13;4184796;28;21405;-87
2024/03/18 04:51:32;;;;;;;9.17;7.67;;;;;;;11.00;99.64;98011.06;4196227;28;20638;-88
2024/03/18 04:53:35;;;;;;;9.20;6.80;;;;;;;11.00;98.50;98008.44;4186401;28;20719;-88
2024/03/18 04:55:37;;;;;;;8.80;7.00;;;;;;;10.99;99.08;98004.19;4184786;28;20631;-88
2024/03/18 04:57:40;;;;;;;11.83;7.90;;;;;;;10.99;99.42;98005.94;4203949;28;21230;-88
2024/03/18 04:59:41;;;;;;;8.30;6.83;;;;;;;10.96;98.62;98004.41;4169346;28;20649;-89
2024/03/18 05:01:43;;;;;;;9.83;6.40;;;;;;;10.94;98.58;98002.84;4201100;28;20622;-88
2024/03/18 05:03:45;;;;;;;10.23;7.10;;;;;;;10.92;99.23;98007.34;4202884;28;20923;-88
2024/03/18 05:05:49;;;;;;;10.10;6.40;;;;;;;10.90;98.60;98002.25;4164010;28;20728;-88
2024/03/18 05:07:52;;;;;;;8.10;6.73;;;;;;;10.88;98.35;98005.91;4166379;28;20837;-88
2024/03/18 05:09:55;;;;;;;8.07;6.40;;;;;;;10.85;98.97;97998.28;4186541;28;20619;-88
2024/03/18 05:11:56;;;;;;;7.13;6.30;;;;;;;10.84;98.08;98000.06;4186169;28;20631;-89
2024/03/18 05:13:59;;;;;;;8.97;6.77;;;;;;;10.81;99.27;97997.69;4183583;28;20666;-88
2024/03/18 05:16:01;;;;;;;8.63;6.33;;;;;;;10.80;98.17;98003.00;4166411;28;20622;-89
2024/03/18 05:18:03;;;;;;;7.53;6.83;;;;;;;10.77;98.65;97995.38;4191819;28;21019;-88
2024/03/18 05:20:11;;;;;;;9.23;6.03;;;;;;;10.77;98.40;97997.19;4170952;28;20656;-88
2024/03/18 05:22:14;;;;;;;8.87;6.60;;;;;;;10.77;98.97;97998.00;4163790;28;20616;-88
2024/03/18 05:24:18;;;;;;;10.10;7.23;;;;;;;10.78;99.20;98004.03;4186335;28;20635;-89
2024/03/18 05:26:21;;;;;;;7.50;6.80;;;;;;;10.80;98.54;98003.00;4185779;28;20681;-88
2024/03/18 05:28:26;;;;;;;6.47;5.77;;;;;;;10.80;98.59;97998.59;4183727;28;20674;-88
2024/03/18 05:30:30;;;;;;;6.87;6.23;;;;;;;10.81;99.26;98000.28;4182480;28;20620;-85
2024/03/18 05:32:32;;;;;;;7.00;6.30;;;;;;;10.82;99.18;97995.88;4199540;28;20600;-88
2024/03/18 05:34:35;;;;;;;7.50;6.27;;;;;;;10.82;99.44;97995.88;4198912;28;20616;-88
2024/03/18 05:36:37;;;;;;;8.70;6.27;;;;;;;10.83;98.87;97995.78;4185541;28;20604;-88
2024/03/18 05:38:39;;;;;;;10.50;6.50;;;;;;;10.84;99.96;97996.63;4184482;28;20619;-88
2024/03/18 05:40:43;;;;;;;10.10;6.67;;;;;;;10.85;99.71;97990.47;4200778;28;21175;-93
2024/03/18 05:42:45;;;;;;;9.13;6.07;;;;;;;10.85;99.46;97996.53;4196351;28;20626;-91
2024/03/18 05:44:49;;;;;;;7.37;6.57;;;;;;;10.85;99.99;97993.91;4189725;28;20623;-91
2024/03/18 05:46:51;;;;;;;7.43;6.23;;;;;;;10.85;99.09;97993.06;4182721;28;20639;-92
2024/03/18 05:48:53;;;;;;;8.43;6.60;;;;;;;10.85;99.73;97990.47;4199395;28;21195;-91
2024/03/18 05:50:56;;;;;;;8.57;6.50;;;;;;;10.85;99.10;97993.06;4188400;28;20620;-92
2024/03/18 05:52:58;;;;;;;9.33;7.03;;;;;;;10.87;98.76;98001.63;4170763;28;20629;-90
2024/03/18 05:55:01;;;;;;;6.93;6.23;;;;;;;10.89;99.43;98002.34;4199447;28;20685;-90
2024/03/18 05:57:05;;;;;;;6.90;6.20;;;;;;;10.90;98.91;97999.63;4188825;28;21334;-92
2024/03/18 05:59:07;;;;;;;7.77;6.97;;;;;;;10.90;99.98;98004.84;4197456;28;20632;-93
2024/03/18 06:01:10;;;;;;;9.17;7.80;;;;;;;10.91;99.21;98006.50;4188365;28;20998;-91
2024/03/18 06:03:12;;;;;;;7.80;6.47;;;;;;;10.95;100.00;98007.97;4200328;28;20611;-91
2024/03/18 06:05:15;;;;;;;6.73;6.03;;;;;;;10.94;99.16;98001.06;4163961;28;20617;-88
2024/03/18 06:07:21;;;;;;;7.87;6.10;;;;;;;10.96;99.80;98003.56;4193859;28;20651;-88
2024/03/18 06:09:25;;;;;;;8.07;6.73;;;;;;;10.98;99.75;98002.53;4167742;28;20621;-89
2024/03/18 06:11:28;;;;;;;8.87;6.90;;;;;;;11.01;99.14;98002.31;4216853;28;20623;-87
2024/03/18 06:13:31;;;;;;;8.73;7.03;;;;;;;11.00;99.20;97998.00;4204210;28;20615;-90
2024/03/18 06:15:34;;;;;;;8.60;6.90;;;;;;;11.03;98.67;97997.78;4185508;28;20668;-89
2024/03/18 06:17:36;;;;;;;8.40;6.37;;;;;;;11.06;99.26;97997.56;4185893;28;21466;-90
2024/03/18 06:19:39;;;;;;;8.00;6.70;;;;;;;11.10;98.90;97999.03;4182144;28;20644;-87
2024/03/18 06:21:42;;;;;;;13.27;7.90;;;;;;;11.10;99.96;97999.03;4204087;28;20663;-89
2024/03/18 06:23:46;;;;;;;11.20;10.10;;;;;;;11.10;99.22;97991.22;4184566;28;20705;-90
2024/03/18 06:25:57;;;;;;;10.53;8.40;;;;;;;11.12;99.32;98004.16;4188130;28;21238;-88
2024/03/18 06:27:59;;;;;;;9.63;8.30;;;;;;;11.15;99.58;98002.13;4203043;28;20611;-88
2024/03/18 06:30:04;;;;;;;10.63;8.20;;;;;;;11.19;99.33;98008.81;4183138;28;21247;-87
2024/03/18 06:32:07;;;;;;;10.03;7.00;;;;;;;11.17;99.07;98005.50;4200331;28;20611;-88
2024/03/18 06:34:09;;;;;;;9.60;6.13;;;;;;;11.17;99.21;98005.50;4198422;28;20635;-87
2024/03/18 06:36:12;;;;;;;7.70;6.30;;;;;;;11.19;99.75;98002.78;4185603;28;20690;-90
2024/03/18 06:38:14;;;;;;;9.67;7.20;;;;;;;11.20;99.62;98007.03;4208929;28;20618;-91
2024/03/18 06:40:17;;;;;;;10.70;7.03;;;;;;;11.23;98.46;98007.66;4203935;28;20651;-89
2024/03/18 06:42:20;;;;;;;9.93;6.90;;;;;;;11.23;98.37;98007.66;4190859;28;20623;-90
2024/03/18 06:44:22;;;;;;;7.83;6.30;;;;;;;11.26;98.25;98011.81;4189050;28;20726;-90
2024/03/18 06:46:26;;;;;;;11.20;6.70;;;;;;;11.27;99.01;98014.31;4185410;28;21285;-88
2024/03/18 06:48:29;;;;;;;8.30;7.10;;;;;;;11.28;99.71;98013.38;4206719;28;20620;-92
2024/03/18 06:50:30;;;;;;;8.80;7.20;;;;;;;11.30;100.00;98017.53;4189972;28;20718;-90
2024/03/18 06:52:33;;;;;;;8.27;7.00;;;;;;;11.31;99.05;98015.78;4187617;28;20617;-92
2024/03/18 06:54:36;;;;;;;8.40;7.30;;;;;;;11.31;99.87;98011.38;4189153;28;20618;-91
2024/03/18 06:56:38;;;;;;;7.67;6.60;;;;;;;11.33;98.77;98013.88;4191928;28;20650;-91
2024/03/18 06:58:40;;;;;;;7.63;6.43;;;;;;;11.34;99.67;98010.31;4221369;28;20633;-91
2024/03/18 07:00:43;;;;;;;6.77;6.10;;;;;;;11.36;99.18;98009.25;4192629;28;20651;-92
2024/03/18 07:02:49;;;;;;;7.53;6.73;;;;;;;11.37;99.38;98010.09;4176472;28;20613;-91
2024/03/18 07:04:52;;;;;;;6.80;5.77;;;;;;;11.40;99.86;98012.50;4189012;28;20611;-93
2024/03/18 07:06:54;;;;;;;11.40;6.93;;;;;;;11.41;100.00;98009.78;4206864;28;20639;-92
2024/03/18 07:08:56;;;;;;;7.73;6.47;;;;;;;11.45;99.61;98015.59;4193052;28;20656;-93
2024/03/18 07:10:59;;;;;;;11.53;7.53;;;;;;;11.47;99.97;98011.13;4185633;28;20662;-93
2024/03/18 07:13:02;;;;;;;8.20;6.67;;;;;;;11.50;99.55;98016.13;4167658;28;20655;-90
2024/03/18 07:15:06;;;;;;;8.70;7.13;;;;;;;11.52;99.97;98017.69;4182767;28;20610;-88
2024/03/18 07:17:08;;;;;;;9.53;7.00;;;;;;;11.53;99.61;98014.13;4190765;28;21088;-88
2024/03/18 07:19:12;;;;;;;7.80;6.50;;;;;;;11.55;99.53;98027.91;4187710;28;20681;-88
2024/03/18 07:21:14;;;;;;;7.70;6.87;;;;;;;11.57;98.25;98025.19;4202626;28;20679;-88
2024/03/18 07:23:17;;;;;;;10.77;7.33;;;;;;;11.58;98.97;98022.44;4181751;28;21108;-89
2024/03/18 07:25:19;;;;;;;9.20;6.77;;;;;;;11.59;98.45;98025.88;4186776;28;20963;-89
2024/03/18 07:27:22;;;;;;;10.33;7.53;;;;;;;11.60;98.81;98030.19;4167143;28;20772;-90
2024/03/18 07:29:25;;;;;;;7.33;6.53;;;;;;;11.62;99.80;98029.13;4202595;28;20675;-89
2024/03/18 07:31:27;;;;;;;12.20;7.30;;;;;;;11.66;100.00;98029.72;4204979;28;20618;-89
2024/03/18 07:33:30;;;;;;;7.73;6.70;;;;;;;11.66;99.46;98027.94;4188377;28;20630;-89
2024/03/18 07:35:33;;;;;;;9.40;6.50;;;;;;;11.68;99.89;98035.66;4202690;28;20611;-89
2024/03/18 07:37:36;;;;;;;9.27;7.23;;;;;;;11.69;100.00;98029.50;4188615;28;20622;-89
2024/03/18 07:39:37;;;;;;;8.00;7.20;;;;;;;11.70;100.00;98031.16;4169354;28;21041;-87
2024/03/18 07:41:39;;;;;;;8.53;7.17;;;;;;;11.71;99.39;98027.59;4201329;28;20622;-88
2024/03/18 07:43:44;;;;;;;7.77;6.90;;;;;;;11.74;100.00;98037.81;4200108;28;20654;-87
2024/03/18 07:45:46;;;;;;;7.60;6.43;;;;;;;11.76;100.00;98029.75;4172997;28;20663;-89
2024/03/18 07:47:49;;;;;;;10.07;7.13;;;;;;;11.81;100.00;98032.03;4184921;28;20620;-90
2024/03/18 07:49:51;;;;;;;7.50;6.70;;;;;;;11.85;99.59;98033.50;4204218;28;20704;-90
2024/03/18 07:51:55;;;;;;;9.90;7.30;;;;;;;11.88;99.55;98039.31;4173323;28;20671;-89
2024/03/18 07:53:56;;;;;;;8.47;6.70;;;;;;;11.90;99.98;98037.41;4181773;28;20991;-91
2024/03/18 07:56:01;;;;;;;10.50;7.37;;;;;;;11.91;99.91;98046.09;4201381;28;20695;-91
2024/03/18 07:58:04;;;;;;;10.23;6.97;;;;;;;11.93;100.00;98046.81;4169962;28;20621;-90
2024/03/18 08:00:07;;;;;;;8.73;7.27;;;;;;;11.95;100.00;98051.00;4202458;28;20647;-92
2024/03/18 08:02:13;;;;;;;13.03;7.13;;;;;;;11.98;100.00;98058.59;4187512;28;20609;-91
2024/03/18 08:04:16;;;;;;;9.97;7.37;;;;;;;12.03;100.00;98059.09;4187197;28;20649;-91
2024/03/18 08:06:19;;;;;;;10.30;7.67;;;;;;;12.04;100.00;98055.53;4174705;28;20663;-90
2024/03/18 08:08:23;;;;;;;10.57;8.70;;;;;;;12.07;99.98;98050.06;4188208;28;20620;-89
2024/03/18 08:10:25;;;;;;;9.57;8.13;;;;;;;12.12;99.54;98060.16;4170397;28;20621;-90
2024/03/18 08:12:27;;;;;;;9.53;7.30;;;;;;;12.13;98.94;98054.00;4171111;28;20999;-90
2024/03/18 08:14:32;;;;;;;8.10;6.97;;;;;;;12.16;99.96;98053.75;4186582;28;20970;-87
2024/03/18 08:16:35;;;;;;;9.60;7.30;;;;;;;12.20;98.87;98056.03;4181440;28;20653;-89
2024/03/18 08:18:37;;;;;;;8.27;7.47;;;;;;;12.26;98.75;98052.94;4195413;28;20627;-89
2024/03/18 08:20:39;;;;;;;10.13;8.10;;;;;;;12.30;99.58;98050.00;4202418;28;20673;-91
2024/03/18 08:22:42;;;;;;;10.43;7.70;;;;;;;12.34;98.30;98046.22;4173202;28;20640;-89
2024/03/18 08:24:48;;;;;;;10.37;8.47;;;;;;;12.36;99.05;98053.94;4189383;28;20620;-91
2024/03/18 08:26:54;;;;;;;10.63;8.20;;;;;;;12.41;98.18;98047.38;4182768;28;20616;-91
2024/03/18 08:28:56;;;;;;;15.73;8.10;;;;;;;12.43;97.42;98049.88;4193679;28;20608;-90
2024/03/18 08:30:59;;;;;;;9.03;7.90;;;;;;;12.44;97.84;98048.94;4201050;28;20611;-90
2024/03/18 08:33:02;;;;;;;9.83;8.17;;;;;;;12.47;99.57;98053.94;4166679;28;20631;-89
2024/03/18 08:35:03;;;;;;;10.83;7.87;;;;;;;12.51;99.21;98055.34;4181398;28;20679;-90
2024/03/18 08:37:06;;;;;;;12.00;8.03;;;;;;;12.54;99.43;98061.22;4182954;28;20625;-90
2024/03/18 08:39:09;;;;;;;12.10;8.30;;;;;;;12.55;98.38;98056.81;4217558;27;20666;-90
2024/03/18 08:41:13;;;;;;;10.10;8.40;;;;;;;12.56;99.67;98043.59;4169647;28;20675;-88
2024/03/18 08:43:15;;;;;;;11.40;8.17;;;;;;;12.58;99.20;98041.69;4202924;28;20655;-89
2024/03/18 08:45:17;;;;;;;12.97;9.97;;;;;;;12.60;98.61;98039.81;4202754;28;20611;-91
2024/03/18 08:47:20;;;;;;;15.47;13.33;;;;;;;12.60;98.76;98039.81;4197638;28;20620;-89
2024/03/18 08:49:23;;;;;;;13.07;11.50;;;;;;;12.58;98.63;98033.03;4203143;28;20709;-90
2024/03/18 08:51:26;;;;;;;11.60;10.40;;;;;;;12.59;99.41;98035.50;4188109;28;20616;-91
2024/03/18 08:53:28;;;;;;;9.50;8.47;;;;;;;12.63;99.31;98036.09;4173092;28;20679;-89
2024/03/18 08:55:29;;;;;;;9.77;8.37;;;;;;;12.67;99.50;98040.97;4200141;28;20612;-91
2024/03/18 08:57:33;;;;;;;9.40;7.67;;;;;;;12.71;99.89;98040.63;4204964;28;20611;-88
2024/03/18 08:59:37;;;;;;;9.50;7.87;;;;;;;12.76;100.00;98042.88;4203046;28;20638;-90
2024/03/18 09:01:39;;;;;;;9.00;8.07;;;;;;;12.80;99.83;98046.94;4200130;28;21152;-83
2024/03/18 09:03:42;;;;;;;10.50;7.50;;;;;;;12.84;100.00;98048.41;4189456;28;20620;-84
2024/03/18 09:05:54;;;;;;;10.47;7.97;;;;;;;12.84;100.00;98048.41;4174531;28;20622;-82
2024/03/18 09:07:56;;;;;;;12.73;7.73;;;;;;;12.85;100.00;98044.81;4201863;28;20626;-83
2024/03/18 09:09:58;;;;;;;12.50;8.10;;;;;;;12.87;100.00;98045.53;4187868;28;20639;-83
2024/03/18 09:12:01;;;;;;;10.90;8.43;;;;;;;12.90;100.00;98046.13;4184525;28;21016;-82
2024/03/18 09:14:05;;;;;;;16.77;14.67;;;;;;;12.96;100.00;98044.81;4200886;28;21056;-83
2024/03/18 09:16:07;;;;;;;29.50;23.37;;;;;;;13.00;100.00;98044.44;4185582;28;21032;-83
2024/03/18 09:18:10;;;;;;;15.53;12.87;;;;;;;13.03;100.00;98040.78;4187938;28;21530;-84
2024/03/18 09:20:16;;;;;;;14.93;10.43;;;;;;;13.06;100.00;98046.59;4189072;28;20608;-83
2024/03/18 09:22:18;;;;;;;12.93;10.83;;;;;;;13.06;100.00;98043.16;4184571;28;20622;-84
2024/03/18 09:24:20;;;;;;;12.83;11.23;;;;;;;13.09;99.74;98050.75;4183389;28;21194;-84
2024/03/18 09:26:22;;;;;;;12.00;10.73;;;;;;;13.10;100.00;98037.53;4217963;28;20930;-83
2024/03/18 09:28:25;;;;;;;12.80;10.90;;;;;;;13.14;100.00;98045.97;4197915;28;20647;-84
2024/03/18 09:30:30;;;;;;;13.00;9.70;;;;;;;13.18;100.00;98053.47;4180708;28;21201;-83
2024/03/18 09:32:33;;;;;;;14.40;9.40;;;;;;;13.20;100.00;98047.16;4182713;28;20636;-83
2024/03/18 09:34:36;;;;;;;10.07;9.07;;;;;;;13.22;100.00;98054.91;4182245;28;20613;-84
2024/03/18 09:36:38;;;;;;;11.40;9.60;;;;;;;13.25;100.00;98052.03;4170337;28;20613;-85